KCNU

Chanute Martin Johnson Airport

Chanute, Kansas, USA
METAR KCNU 192252Z AUTO 20013KT 10SM FEW018 SCT027 BKN035 26/23 A2973 RMK AO2 RAB2153E09B29E42 SLP055 P0002 T02610233
Observed Flight Rules
Aug-19 @ 22:52 UTC (17 minutes ago) Visual Flight Rules
Wind Visibility Clouds
200° at 13 knots 10 miles
  • Few at 1,800' AGL
  • Scattered at 2,700' AGL
  • Broken at 3,500' AGL
Temperatures Readings Precipitation
Current 26°C / 79°F
Dewpoint 23°C / 73°F
Humidity 84%
Altimeter 29.73" Hg
Pressure 1005.5 hPa
Elevation 297
Current Rain 0.02
METAR KCNU 192252Z AUTO 20013KT 10SM FEW018 SCT027 BKN035 26/23 A2973 RMK AO2 RAB2153E09B29E42 SLP055 P0002 T02610233
Observed Flight Rules
Aug-19 @ 22:52 UTC
(17 minutes ago)
VFR
Wind Visibility
200° at 13 knots 10 miles
Clouds
  • Few at 1,800' AGL
  • Scattered at 2,700' AGL
  • Broken at 3,500' AGL
Temperature Dewpoint
26°C / 79°F 23°C / 73°F
Humidity Altimeter Pressure
84% 29.73" Hg 1005.5 hPa
Current Rain
0.02